createdAt,value
2018-09-23T00:01:41.656Z,13.37
2018-09-23T00:04:15.247Z,13.31
2018-09-23T00:06:48.924Z,13.36
2018-09-23T00:09:22.548Z,13.32
2018-09-23T00:11:56.174Z,13.34
2018-09-23T00:14:29.754Z,13.37
2018-09-23T00:17:03.321Z,13.38
2018-09-23T00:19:37.007Z,13.35
2018-09-23T00:22:10.682Z,13.34
2018-09-23T00:24:44.361Z,13.42
2018-09-23T00:27:17.915Z,13.43
2018-09-23T00:29:52.373Z,13.40
2018-09-23T00:32:26.321Z,13.27
2018-09-23T00:34:59.902Z,13.26
2018-09-23T00:37:33.507Z,13.25
2018-09-23T00:40:07.222Z,13.32
2018-09-23T00:42:40.791Z,13.26
2018-09-23T00:45:14.498Z,13.31
2018-09-23T00:47:48.079Z,13.43
2018-09-23T00:50:21.655Z,13.45
2018-09-23T00:52:55.212Z,13.50
2018-09-23T00:55:28.803Z,13.50
2018-09-23T00:58:02.410Z,13.57
2018-09-23T01:00:36.052Z,13.56
2018-09-23T01:03:09.717Z,13.63
2018-09-23T01:05:43.351Z,13.65
2018-09-23T01:08:16.918Z,13.65
2018-09-23T01:10:50.629Z,13.75
2018-09-23T01:13:24.349Z,13.67
2018-09-23T01:15:57.939Z,13.71
2018-09-23T01:18:31.561Z,13.74
2018-09-23T01:21:05.159Z,13.78
2018-09-23T01:23:38.768Z,13.76
2018-09-23T01:26:12.701Z,13.77
2018-09-23T01:28:46.419Z,13.76
2018-09-23T01:31:20.017Z,13.79
2018-09-23T01:33:53.635Z,13.82
2018-09-23T01:36:27.632Z,13.79
2018-09-23T01:39:01.196Z,13.82
2018-09-23T01:41:34.759Z,13.83
2018-09-23T01:44:08.348Z,13.83
2018-09-23T01:46:41.896Z,13.85
2018-09-23T01:49:15.664Z,13.77
2018-09-23T01:51:49.214Z,13.80
2018-09-23T01:54:22.793Z,13.78
2018-09-23T01:56:56.324Z,13.76
2018-09-23T01:59:29.896Z,13.85
2018-09-23T02:02:03.450Z,13.82
2018-09-23T02:04:37.085Z,13.78
2018-09-23T02:07:10.652Z,13.75
2018-09-23T02:09:44.236Z,13.79
2018-09-23T02:12:17.827Z,13.82
2018-09-23T02:14:51.392Z,13.84
2018-09-23T02:17:24.967Z,13.90
2018-09-23T02:19:59.022Z,13.87
2018-09-23T02:22:32.595Z,13.91
2018-09-23T02:25:06.326Z,13.94
2018-09-23T02:27:39.861Z,13.88
2018-09-23T02:30:13.465Z,13.91
2018-09-23T02:32:47.022Z,13.87
2018-09-23T02:35:22.391Z,13.92
2018-09-23T02:37:56.200Z,13.90
2018-09-23T02:40:29.790Z,13.83
2018-09-23T02:43:03.395Z,13.74
2018-09-23T02:45:36.995Z,13.80
2018-09-23T02:48:10.625Z,13.84
2018-09-23T02:50:44.355Z,13.85
2018-09-23T02:53:17.889Z,13.86
2018-09-23T02:55:54.318Z,13.87
2018-09-23T02:58:27.867Z,13.89
2018-09-23T03:01:01.524Z,13.94
2018-09-23T03:03:35.102Z,13.98
2018-09-23T03:06:08.787Z,14.00
2018-09-23T03:08:42.344Z,14.01
2018-09-23T03:11:15.963Z,13.99
2018-09-23T03:13:49.491Z,14.00
2018-09-23T03:16:23.236Z,14.01
2018-09-23T03:18:56.807Z,14.01
2018-09-23T03:21:30.368Z,14.01
2018-09-23T03:24:04.010Z,14.03
2018-09-23T03:26:37.694Z,13.98
2018-09-23T03:29:11.295Z,13.95
2018-09-23T03:31:45.007Z,13.93
2018-09-23T03:34:18.612Z,13.97
2018-09-23T03:36:52.233Z,13.96
2018-09-23T03:39:25.900Z,13.94
2018-09-23T03:41:59.487Z,13.97
2018-09-23T03:44:33.052Z,14.00
2018-09-23T03:47:06.682Z,14.00
2018-09-23T03:49:40.308Z,13.93
2018-09-23T03:52:13.938Z,13.94
2018-09-23T03:54:47.505Z,13.97
2018-09-23T03:57:21.100Z,13.89
2018-09-23T03:59:54.705Z,13.92
2018-09-23T04:02:28.310Z,13.93
2018-09-23T04:05:01.863Z,13.97
2018-09-23T04:07:35.441Z,13.97
2018-09-23T04:10:09.075Z,13.99
2018-09-23T04:12:42.681Z,14.01
2018-09-23T04:15:16.388Z,14.03
2018-09-23T04:17:49.970Z,14.02
2018-09-23T04:20:23.552Z,14.01
2018-09-23T04:22:57.114Z,14.00
2018-09-23T04:25:30.673Z,13.93
2018-09-23T04:28:04.244Z,13.92
2018-09-23T04:30:37.819Z,13.97
2018-09-23T04:33:11.447Z,13.97
2018-09-23T04:35:45.012Z,13.96
2018-09-23T04:38:18.588Z,13.95
2018-09-23T04:40:52.269Z,13.91
2018-09-23T04:43:25.818Z,13.96
2018-09-23T04:45:59.390Z,13.99
2018-09-23T04:48:32.997Z,13.87
2018-09-23T04:51:06.624Z,13.83
2018-09-23T04:53:40.208Z,13.88
2018-09-23T04:56:13.764Z,13.91
2018-09-23T04:58:47.429Z,13.93
2018-09-23T05:01:21.062Z,13.96
2018-09-23T05:03:54.670Z,13.95
2018-09-23T05:06:28.602Z,13.96
2018-09-23T05:09:02.209Z,13.98
2018-09-23T05:11:35.805Z,13.97
2018-09-23T05:14:09.511Z,14.01
2018-09-23T05:16:43.105Z,14.03
2018-09-23T05:19:16.744Z,14.03
2018-09-23T05:21:50.384Z,14.03
2018-09-23T05:24:23.981Z,14.06
2018-09-23T05:26:57.647Z,14.00
2018-09-23T05:29:31.241Z,13.99
2018-09-23T05:32:04.834Z,14.00
2018-09-23T05:34:38.508Z,14.03
2018-09-23T05:37:12.096Z,14.09
2018-09-23T05:39:45.662Z,14.11
2018-09-23T05:42:19.315Z,14.11
2018-09-23T05:44:52.940Z,14.15
2018-09-23T05:47:26.540Z,14.18
2018-09-23T05:50:00.141Z,14.22
2018-09-23T05:52:33.751Z,14.22
2018-09-23T05:55:07.398Z,14.20
2018-09-23T05:57:40.959Z,14.23
2018-09-23T06:00:15.260Z,14.23
2018-09-23T06:02:48.860Z,14.25
2018-09-23T06:05:22.435Z,14.29
2018-09-23T06:07:56.026Z,14.30
2018-09-23T06:10:29.567Z,14.26
2018-09-23T06:13:03.164Z,14.24
2018-09-23T06:15:36.846Z,14.31
2018-09-23T06:18:10.520Z,14.23
2018-09-23T06:20:44.115Z,14.25
2018-09-23T06:23:17.713Z,14.27
2018-09-23T06:25:51.269Z,14.31
2018-09-23T06:28:24.866Z,14.39
2018-09-23T06:30:58.445Z,14.34
2018-09-23T06:33:32.171Z,14.37
2018-09-23T06:36:05.956Z,14.43
2018-09-23T06:38:39.553Z,14.51
2018-09-23T06:41:13.327Z,14.44
2018-09-23T06:43:46.993Z,14.43
2018-09-23T06:46:20.557Z,14.48
2018-09-23T06:48:54.140Z,14.49
2018-09-23T06:51:27.732Z,14.55
2018-09-23T06:54:01.315Z,14.51
2018-09-23T06:56:34.875Z,14.39
2018-09-23T06:59:08.925Z,14.50
2018-09-23T07:01:42.514Z,14.52
2018-09-23T07:04:16.091Z,14.57
2018-09-23T07:06:49.659Z,14.58
2018-09-23T07:09:23.250Z,14.69
2018-09-23T07:11:56.856Z,14.72
2018-09-23T07:14:30.493Z,14.65
2018-09-23T07:17:04.131Z,14.61
2018-09-23T07:19:37.717Z,14.67
2018-09-23T07:22:11.366Z,14.67
2018-09-23T07:24:44.965Z,14.80
2018-09-23T07:27:18.576Z,14.90
2018-09-23T07:29:52.214Z,15.02
2018-09-23T07:32:25.775Z,15.14
2018-09-23T07:34:59.304Z,14.99
2018-09-23T07:37:32.860Z,15.08
2018-09-23T07:40:06.558Z,15.11
2018-09-23T07:42:40.145Z,15.10
2018-09-23T07:45:13.734Z,15.16
2018-09-23T07:47:47.276Z,15.14
2018-09-23T07:50:20.898Z,15.24
2018-09-23T07:52:54.551Z,15.33
2018-09-23T07:55:28.175Z,15.24
2018-09-23T07:58:01.745Z,15.35
2018-09-23T08:00:35.341Z,15.46
2018-09-23T08:03:08.935Z,15.54
2018-09-23T08:05:42.501Z,15.47
2018-09-23T08:08:16.067Z,15.51
2018-09-23T08:10:49.767Z,15.48
2018-09-23T08:13:23.561Z,15.49
2018-09-23T08:15:57.066Z,15.58
2018-09-23T08:18:30.919Z,15.54
2018-09-23T08:21:04.543Z,15.61
2018-09-23T08:23:38.170Z,15.71
2018-09-23T08:26:11.770Z,15.72
2018-09-23T08:28:45.342Z,15.87
2018-09-23T08:31:18.938Z,15.94
2018-09-23T08:33:53.648Z,16.05
2018-09-23T08:36:27.231Z,16.13
2018-09-23T08:39:00.798Z,16.23
2018-09-23T08:41:34.405Z,16.29
2018-09-23T08:44:08.110Z,16.36
2018-09-23T08:46:41.709Z,16.16
2018-09-23T08:49:15.289Z,16.22
2018-09-23T08:51:48.951Z,16.31
2018-09-23T08:54:22.515Z,16.22
2018-09-23T08:56:56.107Z,16.28
2018-09-23T08:59:29.813Z,16.28
2018-09-23T09:02:03.415Z,16.31
2018-09-23T09:04:37.014Z,16.29
2018-09-23T09:07:10.549Z,16.14
2018-09-23T09:09:44.133Z,16.25
2018-09-23T09:12:17.790Z,16.33
2018-09-23T09:14:51.375Z,16.35
2018-09-23T09:17:24.920Z,16.42
2018-09-23T09:19:58.493Z,16.53
2018-09-23T09:22:32.102Z,16.72
2018-09-23T09:25:05.717Z,16.53
2018-09-23T09:27:39.281Z,16.48
2018-09-23T09:30:12.891Z,16.61
2018-09-23T09:32:46.400Z,16.48
2018-09-23T09:35:19.991Z,16.51
2018-09-23T09:37:53.531Z,16.56
2018-09-23T09:40:27.451Z,16.45
2018-09-23T09:43:01.042Z,16.46
2018-09-23T09:45:34.799Z,16.58
2018-09-23T09:48:09.124Z,16.42
2018-09-23T09:50:42.801Z,16.32
2018-09-23T09:53:16.355Z,16.26
2018-09-23T09:55:49.922Z,16.32
2018-09-23T09:58:23.439Z,16.44
2018-09-23T10:00:57.147Z,16.41
2018-09-23T10:03:30.760Z,16.54
2018-09-23T10:06:04.368Z,16.60
2018-09-23T10:08:38.049Z,16.70
2018-09-23T10:11:11.753Z,16.66
2018-09-23T10:13:45.599Z,16.52
2018-09-23T10:16:19.217Z,16.53
2018-09-23T10:18:55.974Z,16.56
2018-09-23T10:21:30.254Z,16.57
2018-09-23T10:24:05.057Z,16.60
2018-09-23T10:26:39.067Z,16.50
2018-09-23T10:29:13.265Z,16.59
2018-09-23T10:31:47.335Z,16.69
2018-09-23T10:34:20.976Z,16.78
2018-09-23T10:36:54.711Z,16.75
2018-09-23T10:39:28.943Z,16.81
2018-09-23T10:42:03.265Z,16.74
2018-09-23T10:44:36.807Z,16.77
2018-09-23T10:47:10.490Z,16.72
2018-09-23T10:49:44.077Z,16.82
2018-09-23T10:52:17.743Z,16.94
2018-09-23T10:54:51.705Z,16.87
2018-09-23T10:57:25.306Z,16.93
2018-09-23T11:00:00.519Z,16.84
2018-09-23T11:02:34.092Z,16.85
2018-09-23T11:05:08.275Z,16.86
2018-09-23T11:07:41.843Z,16.90
2018-09-23T11:10:15.526Z,16.75
2018-09-23T11:12:49.198Z,16.73
2018-09-23T11:15:24.092Z,16.73
2018-09-23T11:17:57.937Z,16.74
2018-09-23T11:20:31.718Z,16.69
2018-09-23T11:23:07.317Z,16.68
2018-09-23T11:25:40.895Z,16.67
2018-09-23T11:28:14.762Z,16.65
2018-09-23T11:30:49.331Z,16.61
2018-09-23T11:33:22.960Z,16.59
2018-09-23T11:35:56.642Z,16.52
2018-09-23T11:38:30.232Z,16.40
2018-09-23T11:41:09.015Z,16.29
2018-09-23T11:43:42.898Z,16.20
2018-09-23T11:46:16.459Z,16.16
2018-09-23T11:48:50.096Z,16.10
2018-09-23T11:51:23.670Z,16.03
2018-09-23T11:53:57.240Z,15.99
2018-09-23T11:56:30.785Z,15.89
2018-09-23T11:59:04.491Z,15.85
2018-09-23T12:01:37.997Z,15.83
2018-09-23T12:04:11.615Z,15.80
2018-09-23T12:06:45.159Z,15.72
2018-09-23T12:09:18.842Z,15.66
2018-09-23T12:11:52.543Z,15.59
2018-09-23T12:14:26.037Z,15.51
2018-09-23T12:17:00.668Z,15.44
2018-09-23T12:19:34.211Z,15.36
2018-09-23T12:22:07.787Z,15.33
2018-09-23T12:24:41.337Z,15.31
2018-09-23T12:27:14.906Z,15.31
2018-09-23T12:29:48.553Z,15.31
2018-09-23T12:32:22.143Z,15.35
2018-09-23T12:34:55.678Z,15.37
2018-09-23T12:37:29.231Z,15.37
2018-09-23T12:40:02.839Z,15.35
2018-09-23T12:42:36.369Z,15.31
2018-09-23T12:45:10.936Z,15.23
2018-09-23T12:47:44.705Z,15.11
2018-09-23T12:50:18.350Z,14.91
2018-09-23T12:52:52.010Z,14.75
2018-09-23T12:55:25.572Z,14.63
2018-09-23T12:58:00.255Z,14.48
2018-09-23T13:00:33.796Z,14.35
2018-09-23T13:03:07.418Z,14.23
2018-09-23T13:05:41.015Z,14.14
2018-09-23T13:08:14.576Z,14.09
2018-09-23T13:10:48.175Z,14.04
2018-09-23T13:13:21.766Z,13.99
2018-09-23T13:15:55.365Z,13.91
2018-09-23T13:18:29.058Z,13.81
2018-09-23T13:21:02.690Z,13.74
2018-09-23T13:23:36.260Z,13.70
2018-09-23T13:26:09.811Z,13.67
2018-09-23T13:28:43.447Z,13.66
2018-09-23T13:31:17.258Z,13.66
2018-09-23T13:33:50.866Z,13.66
2018-09-23T13:36:24.467Z,13.64
2018-09-23T13:38:58.050Z,13.62
2018-09-23T13:41:31.591Z,13.58
2018-09-23T13:44:05.188Z,13.50
2018-09-23T13:46:38.889Z,13.47
2018-09-23T13:49:12.476Z,13.44
2018-09-23T13:51:46.021Z,13.45
2018-09-23T13:54:19.687Z,13.43
2018-09-23T13:56:53.234Z,13.44
2018-09-23T13:59:26.812Z,13.42
2018-09-23T14:02:00.522Z,13.38
2018-09-23T14:04:34.099Z,13.41
2018-09-23T14:07:07.724Z,13.50
2018-09-23T14:09:41.324Z,13.54
2018-09-23T14:12:14.948Z,13.56
2018-09-23T14:14:48.504Z,13.55
2018-09-23T14:17:22.097Z,13.53
2018-09-23T14:19:56.259Z,13.52
2018-09-23T14:22:29.911Z,13.53
2018-09-23T14:25:03.502Z,13.52
2018-09-23T14:27:37.063Z,13.49
2018-09-23T14:30:10.655Z,13.42
2018-09-23T14:32:44.210Z,13.35
2018-09-23T14:35:17.818Z,13.32
2018-09-23T14:37:51.367Z,13.30
2018-09-23T14:40:24.926Z,13.26
2018-09-23T14:42:58.556Z,13.26
2018-09-23T14:45:32.150Z,13.22
2018-09-23T14:48:05.795Z,13.19
2018-09-23T14:50:39.415Z,13.11
2018-09-23T14:53:12.976Z,13.05
2018-09-23T14:55:46.620Z,13.03
2018-09-23T14:58:20.233Z,12.99
2018-09-23T15:00:54.068Z,12.98
2018-09-23T15:03:27.702Z,12.95
2018-09-23T15:06:01.284Z,12.95
2018-09-23T15:08:34.857Z,12.95
2018-09-23T15:11:08.447Z,12.96
2018-09-23T15:13:42.029Z,13.01
2018-09-23T15:16:15.627Z,12.94
2018-09-23T15:18:49.203Z,12.94
2018-09-23T15:21:22.773Z,12.98
2018-09-23T15:23:56.357Z,13.02
2018-09-23T15:26:29.951Z,13.04
2018-09-23T15:29:03.571Z,13.03
2018-09-23T15:31:37.170Z,13.05
2018-09-23T15:34:10.773Z,13.09
2018-09-23T15:36:44.391Z,13.09
2018-09-23T15:39:18.027Z,13.12
2018-09-23T15:41:51.603Z,13.14
2018-09-23T15:44:25.288Z,13.11
2018-09-23T15:46:58.861Z,13.12
2018-09-23T15:49:32.476Z,13.12
2018-09-23T15:52:06.176Z,13.09
2018-09-23T15:54:39.770Z,13.04
2018-09-23T15:57:13.355Z,12.99
2018-09-23T15:59:46.929Z,12.95
2018-09-23T16:02:20.494Z,12.89
2018-09-23T16:04:54.057Z,12.82
2018-09-23T16:07:27.681Z,12.76
2018-09-23T16:10:04.328Z,12.72
2018-09-23T16:12:37.936Z,12.66
2018-09-23T16:15:11.599Z,12.60
2018-09-23T16:17:45.188Z,12.57
2018-09-23T16:20:18.807Z,12.56
2018-09-23T16:22:52.413Z,12.51
2018-09-23T16:25:26.010Z,12.50
2018-09-23T16:27:59.604Z,12.47
2018-09-23T16:30:33.194Z,12.43
2018-09-23T16:33:06.778Z,12.38
2018-09-23T16:35:40.372Z,12.35
2018-09-23T16:38:13.927Z,12.38
2018-09-23T16:40:47.510Z,12.39
2018-09-23T16:43:21.139Z,12.38
2018-09-23T16:45:54.724Z,12.36
2018-09-23T16:48:28.361Z,12.38
2018-09-23T16:51:01.936Z,12.37
2018-09-23T16:53:35.496Z,12.35
2018-09-23T16:56:09.082Z,12.38
2018-09-23T16:58:42.634Z,12.40
2018-09-23T17:01:16.214Z,12.41
2018-09-23T17:03:49.796Z,12.40
2018-09-23T17:06:23.628Z,12.46
2018-09-23T17:08:57.254Z,12.48
2018-09-23T17:11:30.870Z,12.44
2018-09-23T17:14:05.153Z,12.40
2018-09-23T17:16:39.913Z,12.43
2018-09-23T17:19:14.347Z,12.43
2018-09-23T17:21:48.458Z,12.44
2018-09-23T17:24:22.673Z,12.43
2018-09-23T17:26:56.728Z,12.45
2018-09-23T17:29:30.955Z,12.40
2018-09-23T17:32:05.163Z,12.43
2018-09-23T17:34:39.186Z,12.41
2018-09-23T17:37:13.226Z,12.44
2018-09-23T17:39:47.418Z,12.44
2018-09-23T17:42:21.322Z,12.45
2018-09-23T17:44:55.338Z,12.45
2018-09-23T17:47:29.471Z,12.45
2018-09-23T17:50:03.725Z,12.45
2018-09-23T17:52:38.137Z,12.46
2018-09-23T17:55:12.176Z,12.38
2018-09-23T17:57:46.388Z,12.39
2018-09-23T18:00:20.384Z,12.31
2018-09-23T18:02:54.603Z,12.35
2018-09-23T18:05:28.689Z,12.36
2018-09-23T18:08:02.832Z,12.34
2018-09-23T18:10:36.924Z,12.41
2018-09-23T18:13:11.037Z,12.39
2018-09-23T18:15:45.035Z,12.34
2018-09-23T18:18:19.843Z,12.36
2018-09-23T18:20:54.541Z,12.32
2018-09-23T18:23:28.682Z,12.37
2018-09-23T18:26:02.760Z,12.35
2018-09-23T18:28:36.861Z,12.34
2018-09-23T18:31:11.015Z,12.31
2018-09-23T18:33:44.932Z,12.31
2018-09-23T18:36:19.115Z,12.30
2018-09-23T18:38:53.051Z,12.31
2018-09-23T18:41:28.330Z,12.29
2018-09-23T18:44:02.543Z,12.28
2018-09-23T18:46:38.438Z,12.34
2018-09-23T18:49:12.542Z,12.32
2018-09-23T18:51:46.651Z,12.33
2018-09-23T18:55:24.488Z,12.34
2018-09-23T18:57:58.705Z,12.32
2018-09-23T19:00:32.768Z,12.31
2018-09-23T19:03:06.792Z,12.32
2018-09-23T19:05:40.836Z,12.36
2018-09-23T19:08:15.159Z,12.34
2018-09-23T19:10:49.184Z,12.29
2018-09-23T19:13:28.317Z,12.26
2018-09-23T19:16:07.166Z,12.28
2018-09-23T19:18:41.304Z,12.23
2018-09-23T19:21:16.177Z,12.20
2018-09-23T19:23:50.181Z,12.18
2018-09-23T19:26:24.430Z,12.16
2018-09-23T19:28:58.892Z,12.15
2018-09-23T19:31:32.894Z,12.17
2018-09-23T19:34:07.144Z,12.10
2018-09-23T19:36:41.244Z,12.12
2018-09-23T19:39:15.474Z,12.14
2018-09-23T19:41:49.546Z,12.15
2018-09-23T19:44:23.643Z,12.18
2018-09-23T19:46:58.231Z,12.17
2018-09-23T19:49:32.152Z,12.09
2018-09-23T19:52:06.210Z,12.10
2018-09-23T19:54:40.369Z,12.10
2018-09-23T19:57:14.510Z,12.07
2018-09-23T19:59:48.458Z,12.08
2018-09-23T20:02:22.522Z,12.05
2018-09-23T20:04:56.660Z,12.01
2018-09-23T20:07:30.803Z,12.03
2018-09-23T20:10:04.927Z,11.97
2018-09-23T20:12:39.098Z,11.89
2018-09-23T20:15:15.003Z,11.88
2018-09-23T20:17:49.191Z,11.88
2018-09-23T20:20:23.809Z,11.94
2018-09-23T20:22:58.087Z,11.96
2018-09-23T20:25:32.074Z,11.91
2018-09-23T20:28:06.439Z,11.93
2018-09-23T20:30:40.360Z,11.92
2018-09-23T20:33:14.572Z,11.81
2018-09-23T20:35:48.544Z,11.91
2018-09-23T20:38:22.655Z,11.85
2018-09-23T20:40:56.845Z,11.85
2018-09-23T20:43:30.962Z,11.81
2018-09-23T20:46:04.989Z,11.75
2018-09-23T20:48:39.137Z,11.71
2018-09-23T20:51:13.403Z,11.69
2018-09-23T20:53:47.732Z,11.70
2018-09-23T20:56:22.142Z,11.69
2018-09-23T20:58:56.312Z,11.70
2018-09-23T21:01:31.088Z,11.63
2018-09-23T21:04:06.141Z,11.56
2018-09-23T21:06:40.929Z,11.53
2018-09-23T21:09:15.536Z,11.51
2018-09-23T21:11:50.293Z,11.43
2018-09-23T21:14:26.060Z,11.36
2018-09-23T21:17:01.394Z,11.32
2018-09-23T21:19:36.688Z,11.34
2018-09-23T21:22:12.044Z,11.30
2018-09-23T21:24:47.358Z,11.28
2018-09-23T21:27:23.283Z,11.29
2018-09-23T21:29:58.177Z,11.25
2018-09-23T21:32:33.178Z,11.23
2018-09-23T21:35:08.867Z,11.22
2018-09-23T21:37:43.858Z,11.22
2018-09-23T21:40:17.457Z,11.22
2018-09-23T21:42:51.117Z,11.19
2018-09-23T21:45:24.690Z,11.10
2018-09-23T21:47:58.241Z,11.17
2018-09-23T21:50:31.802Z,11.09
2018-09-23T21:53:06.597Z,11.11
2018-09-23T21:55:41.377Z,11.10
2018-09-23T21:58:16.168Z,11.10
2018-09-23T22:00:51.200Z,11.11
2018-09-23T22:03:24.963Z,11.06
2018-09-23T22:05:59.835Z,11.09
2018-09-23T22:08:35.257Z,11.01
2018-09-23T22:11:11.053Z,11.01
2018-09-23T22:13:45.850Z,11.07
2018-09-23T22:16:22.633Z,11.01
2018-09-23T22:18:58.022Z,10.95
2018-09-23T22:21:32.967Z,10.95
2018-09-23T22:24:07.970Z,10.97
2018-09-23T22:26:42.919Z,11.01
2018-09-23T22:29:17.599Z,11.05
2018-09-23T22:31:52.269Z,10.99
2018-09-23T22:34:27.668Z,11.04
2018-09-23T22:37:02.682Z,10.95
2018-09-23T22:39:37.553Z,11.05
2018-09-23T22:42:12.497Z,11.10
2018-09-23T22:44:47.363Z,11.09
2018-09-23T22:47:21.994Z,11.10
2018-09-23T22:49:57.049Z,11.15
2018-09-23T22:52:35.677Z,11.17
2018-09-23T22:55:11.378Z,11.17
2018-09-23T22:57:47.067Z,11.21
2018-09-23T23:00:22.225Z,11.22
2018-09-23T23:02:56.499Z,11.17
2018-09-23T23:05:31.345Z,11.14
2018-09-23T23:08:06.008Z,11.15
2018-09-23T23:10:40.890Z,11.07
2018-09-23T23:13:15.740Z,10.97
2018-09-23T23:15:52.065Z,10.93
2018-09-23T23:18:27.620Z,10.92
2018-09-23T23:21:03.904Z,10.88
2018-09-23T23:23:39.849Z,10.89
2018-09-23T23:26:14.698Z,10.83
2018-09-23T23:28:49.464Z,10.84
2018-09-23T23:31:25.109Z,10.79
2018-09-23T23:33:59.878Z,10.78
2018-09-23T23:36:34.652Z,10.84
2018-09-23T23:39:11.072Z,10.82
2018-09-23T23:41:46.000Z,10.80
2018-09-23T23:44:21.574Z,10.76
2018-09-23T23:46:56.495Z,10.69
2018-09-23T23:49:31.552Z,10.68
2018-09-23T23:52:06.359Z,10.66
2018-09-23T23:54:41.666Z,10.63
2018-09-23T23:57:16.648Z,10.61
2018-09-23T23:59:51.541Z,10.57
